Time;durP1;ratioP1;P1;durP2;ratioP2;P2;SDS_P1;SDS_P2;PMS_P1;PMS_P2;Temp;Humidity;BMP_temperature;BMP_pressure;BME280_temperature;BME280_humidity;BME280_pressure;Samples;Min_cycle;Max_cycle;Signal;HPM_P1;HPM_P2
2023/02/05 00:01:20;;;;;;;8.77;5.90;;;4.20;82.80;;;;;;5035812;28;20084;-59
2023/02/05 00:03:46;;;;;;;8.48;5.22;;;4.20;83.10;;;;;;5035816;28;20095;-59
2023/02/05 00:06:12;;;;;;;10.57;5.78;;;4.20;83.20;;;;;;5033802;28;20132;-59
2023/02/05 00:08:37;;;;;;;9.23;5.97;;;4.20;83.20;;;;;;5031247;28;20033;-58
2023/02/05 00:11:08;;;;;;;7.63;5.68;;;4.20;83.20;;;;;;5027230;28;20511;-60
2023/02/05 00:13:35;;;;;;;9.55;5.38;;;4.30;83.00;;;;;;5027648;28;20083;-59
2023/02/05 00:16:09;;;;;;;7.68;5.50;;;4.30;83.00;;;;;;5031100;28;20551;-59
2023/02/05 00:18:36;;;;;;;9.60;5.78;;;4.30;83.00;;;;;;5030773;28;20045;-56
2023/02/05 00:21:02;;;;;;;9.80;5.85;;;4.30;82.80;;;;;;5023662;28;20045;-60
2023/02/05 00:23:27;;;;;;;8.18;5.10;;;4.30;82.60;;;;;;5032129;28;20038;-60
2023/02/05 00:25:53;;;;;;;9.18;6.13;;;4.10;82.40;;;;;;5029616;28;20041;-60
2023/02/05 00:28:19;;;;;;;10.27;6.20;;;4.20;82.60;;;;;;5031188;28;20567;-58
2023/02/05 00:30:44;;;;;;;9.13;5.97;;;4.10;82.80;;;;;;5028441;28;20036;-58
2023/02/05 00:33:10;;;;;;;12.05;6.60;;;4.10;82.90;;;;;;5024544;28;20511;-60
2023/02/05 00:35:35;;;;;;;9.25;6.22;;;4.10;82.90;;;;;;5027442;28;20030;-60
2023/02/05 00:38:01;;;;;;;8.65;6.15;;;4.10;82.50;;;;;;5024155;28;20038;-58
2023/02/05 00:40:26;;;;;;;8.40;6.13;;;4.00;82.30;;;;;;5027924;28;20381;-58
2023/02/05 00:42:52;;;;;;;10.27;6.57;;;4.00;82.20;;;;;;5030706;28;20040;-58
2023/02/05 00:45:17;;;;;;;10.73;6.65;;;3.90;82.10;;;;;;5028758;28;20087;-58
2023/02/05 00:47:43;;;;;;;10.75;6.47;;;3.90;82.10;;;;;;5027896;28;20454;-59
2023/02/05 00:50:09;;;;;;;10.27;6.45;;;3.90;82.10;;;;;;5027525;28;20666;-59
2023/02/05 00:52:34;;;;;;;9.73;5.90;;;3.80;82.00;;;;;;5029623;28;20033;-59
2023/02/05 00:55:00;;;;;;;12.82;6.68;;;3.80;82.00;;;;;;5031228;28;20025;-59
2023/02/05 00:57:25;;;;;;;12.00;7.07;;;3.70;82.00;;;;;;5029097;28;20468;-59
2023/02/05 00:59:52;;;;;;;12.70;7.32;;;3.70;82.20;;;;;;5032052;28;20029;-57
2023/02/05 01:02:22;;;;;;;10.20;6.63;;;3.60;82.00;;;;;;5029082;28;20075;-59
2023/02/05 01:04:49;;;;;;;11.77;7.22;;;3.60;81.90;;;;;;5027819;28;20038;-58
2023/02/05 01:07:16;;;;;;;11.90;7.32;;;3.60;82.00;;;;;;5028830;28;20037;-58
2023/02/05 01:09:41;;;;;;;13.07;7.40;;;3.50;82.00;;;;;;5034085;28;20076;-59
2023/02/05 01:12:07;;;;;;;9.40;7.22;;;3.50;82.00;;;;;;5029822;28;20124;-60
2023/02/05 01:14:33;;;;;;;11.48;7.20;;;3.40;82.10;;;;;;5031980;28;20061;-60
2023/02/05 01:16:58;;;;;;;11.15;7.22;;;3.40;82.30;;;;;;5030386;28;20095;-58
2023/02/05 01:19:24;;;;;;;10.07;6.75;;;3.30;82.50;;;;;;5030550;28;20712;-60
2023/02/05 01:21:49;;;;;;;9.18;6.72;;;3.30;82.80;;;;;;5032707;28;20036;-59
2023/02/05 01:24:15;;;;;;;8.85;6.07;;;3.20;82.90;;;;;;5032472;28;20249;-59
2023/02/05 01:26:40;;;;;;;8.75;6.28;;;3.20;82.90;;;;;;5032848;28;20060;-58
2023/02/05 01:29:06;;;;;;;9.48;6.30;;;3.20;82.90;;;;;;5026869;28;20136;-59
2023/02/05 01:31:32;;;;;;;9.88;5.88;;;3.20;83.70;;;;;;5028806;28;20508;-58
2023/02/05 01:33:58;;;;;;;14.73;6.20;;;3.20;82.80;;;;;;5026254;28;20042;-56
2023/02/05 01:36:23;;;;;;;10.80;6.38;;;3.20;82.80;;;;;;5027143;28;20501;-60
2023/02/05 01:38:49;;;;;;;10.60;6.20;;;3.20;82.60;;;;;;5027983;28;20646;-58
2023/02/05 01:41:15;;;;;;;12.15;7.20;;;3.20;82.60;;;;;;5029120;28;20957;-59
2023/02/05 01:43:40;;;;;;;14.85;8.10;;;3.10;82.50;;;;;;5024754;28;20121;-57
2023/02/05 01:46:28;;;;;;;26.42;11.50;;;3.10;82.50;;;;;;5030340;28;20045;-58
2023/02/05 01:48:57;;;;;;;23.27;10.98;;;3.00;82.80;;;;;;5025912;28;20119;-58
2023/02/05 01:51:25;;;;;;;17.13;8.98;;;3.00;82.70;;;;;;5029008;28;20091;-59
2023/02/05 01:53:51;;;;;;;12.63;7.30;;;2.90;82.80;;;;;;5034544;28;20033;-60
2023/02/05 01:56:25;;;;;;;10.48;6.50;;;2.90;82.80;;;;;;5035590;28;20448;-59
2023/02/05 01:58:58;;;;;;;10.10;6.32;;;2.80;83.10;;;;;;5034196;28;20040;-58
2023/02/05 02:01:26;;;;;;;10.63;6.97;;;2.80;83.20;;;;;;5028323;28;20040;-59
2023/02/05 02:03:53;;;;;;;12.75;7.07;;;2.80;83.40;;;;;;5032031;28;20084;-56
2023/02/05 02:06:19;;;;;;;13.57;7.68;;;2.70;83.50;;;;;;5033624;28;20056;-61
2023/02/05 02:08:45;;;;;;;15.45;6.93;;;2.70;83.70;;;;;;5024362;28;20123;-57
2023/02/05 02:11:13;;;;;;;10.85;7.00;;;2.70;83.90;;;;;;5029131;28;20034;-59
2023/02/05 02:13:40;;;;;;;11.45;6.97;;;2.70;84.00;;;;;;5029709;28;20045;-60
2023/02/05 02:16:06;;;;;;;10.65;6.93;;;2.60;84.00;;;;;;5028768;28;20053;-58
2023/02/05 02:18:35;;;;;;;11.77;6.68;;;2.70;84.00;;;;;;5029601;28;20053;-59
2023/02/05 02:21:06;;;;;;;11.48;7.35;;;2.60;83.90;;;;;;5032311;28;20033;-60
2023/02/05 02:23:53;;;;;;;12.15;6.78;;;2.60;84.00;;;;;;5030881;28;20046;-58
2023/02/05 02:26:47;;;;;;;9.70;6.57;;;2.60;84.00;;;;;;5029651;28;20481;-59
2023/02/05 02:29:21;;;;;;;9.00;5.88;;;2.60;84.20;;;;;;5033803;28;20052;-58
2023/02/05 02:31:58;;;;;;;11.77;6.40;;;2.50;84.10;;;;;;5029181;28;20052;-59
2023/02/05 02:34:35;;;;;;;9.50;6.50;;;2.60;84.20;;;;;;5037824;28;20045;-60
2023/02/05 02:37:08;;;;;;;12.18;7.00;;;2.60;84.20;;;;;;5038311;28;20037;-58
2023/02/05 02:40:03;;;;;;;8.98;6.32;;;2.60;84.00;;;;;;5032193;28;20028;-57
2023/02/05 02:42:34;;;;;;;8.70;6.30;;;2.60;84.10;;;;;;5034134;28;20394;-57
2023/02/05 02:45:03;;;;;;;11.48;6.60;;;2.60;84.00;;;;;;5032019;28;20049;-60
2023/02/05 02:47:35;;;;;;;11.27;6.68;;;2.60;83.90;;;;;;5034601;28;20120;-59
2023/02/05 02:50:08;;;;;;;12.07;6.90;;;2.60;83.90;;;;;;5037319;28;20119;-55
2023/02/05 02:52:38;;;;;;;10.67;6.50;;;2.60;83.90;;;;;;5037290;28;20032;-58
2023/02/05 02:55:08;;;;;;;9.43;6.25;;;2.50;83.70;;;;;;5035323;28;20053;-57
2023/02/05 02:57:37;;;;;;;9.23;6.68;;;2.50;83.80;;;;;;5035133;28;20559;-59
2023/02/05 03:00:10;;;;;;;9.68;6.40;;;2.50;83.80;;;;;;5034925;28;20033;-59
2023/02/05 03:02:39;;;;;;;9.68;6.10;;;2.50;83.70;;;;;;5029283;28;20111;-60
2023/02/05 03:05:11;;;;;;;10.15;6.20;;;2.50;83.70;;;;;;5032764;28;20624;-59
2023/02/05 03:07:44;;;;;;;9.43;5.82;;;2.50;83.80;;;;;;5029973;28;20067;-58
2023/02/05 03:10:19;;;;;;;10.13;6.80;;;2.40;83.60;;;;;;5030266;28;20060;-58
2023/02/05 03:12:45;;;;;;;9.90;6.55;;;2.40;83.60;;;;;;5026439;28;20091;-57
2023/02/05 03:15:11;;;;;;;10.35;6.20;;;2.40;83.40;;;;;;5034437;28;20489;-59
2023/02/05 03:17:38;;;;;;;8.13;6.20;;;2.40;83.40;;;;;;5031825;28;20037;-61
2023/02/05 03:20:21;;;;;;;9.77;6.13;;;2.40;83.50;;;;;;5033007;28;20025;-58
2023/02/05 03:22:47;;;;;;;10.18;5.93;;;2.30;83.50;;;;;;5030412;28;20061;-59
2023/02/05 03:25:13;;;;;;;8.73;5.88;;;2.30;83.30;;;;;;5035614;28;20504;-58
2023/02/05 03:27:39;;;;;;;8.88;5.70;;;2.30;83.30;;;;;;5035327;28;20037;-59
2023/02/05 03:30:06;;;;;;;11.43;6.78;;;2.30;83.30;;;;;;5030996;28;20451;-59
2023/02/05 03:32:38;;;;;;;12.27;7.25;;;2.20;83.20;;;;;;5024748;28;20611;-59
2023/02/05 03:35:19;;;;;;;12.00;7.30;;;2.20;83.30;;;;;;5032638;28;20043;-60
2023/02/05 03:38:29;;;;;;;13.15;7.70;;;2.20;83.70;;;;;;5030216;28;20417;-58
2023/02/05 03:40:59;;;;;;;10.10;6.10;;;2.20;83.50;;;;;;5031454;28;20046;-57
2023/02/05 03:43:49;;;;;;;9.70;6.38;;;2.20;83.30;;;;;;5028105;28;20420;-58
2023/02/05 03:46:23;;;;;;;10.02;6.40;;;2.20;83.50;;;;;;5031494;28;20511;-58
2023/02/05 03:49:08;;;;;;;10.73;6.30;;;2.10;83.20;;;;;;5027656;28;20067;-59
2023/02/05 03:51:48;;;;;;;10.82;7.00;;;2.10;83.50;;;;;;5030743;28;20034;-58
2023/02/05 03:54:52;;;;;;;12.70;6.70;;;2.00;83.30;;;;;;5036451;28;20041;-58
2023/02/05 03:57:49;;;;;;;11.40;6.82;;;2.00;83.70;;;;;;5037183;28;20124;-59
2023/02/05 04:00:16;;;;;;;10.30;6.10;;;1.90;83.70;;;;;;5037370;28;20457;-58
2023/02/05 04:02:42;;;;;;;12.38;5.72;;;1.90;83.70;;;;;;5036018;28;20055;-55
2023/02/05 04:05:08;;;;;;;9.00;6.32;;;1.80;83.90;;;;;;5033713;28;20029;-58
2023/02/05 04:07:33;;;;;;;12.43;6.85;;;1.80;84.00;;;;;;5029395;28;20033;-58
2023/02/05 04:09:59;;;;;;;9.35;6.82;;;1.80;84.00;;;;;;5028117;28;20390;-58
2023/02/05 04:12:24;;;;;;;8.45;6.25;;;1.80;84.00;;;;;;5030165;28;20033;-60
2023/02/05 04:14:50;;;;;;;11.57;6.65;;;1.80;84.00;;;;;;5026322;28;20048;-60
2023/02/05 04:17:15;;;;;;;10.65;6.55;;;1.70;84.20;;;;;;5027434;28;20029;-58
2023/02/05 04:19:41;;;;;;;10.75;6.75;;;1.70;84.30;;;;;;5031644;28;20037;-60
2023/02/05 04:22:07;;;;;;;9.73;6.85;;;1.70;84.40;;;;;;5031816;28;20508;-61
2023/02/05 04:24:32;;;;;;;10.50;6.38;;;1.70;84.60;;;;;;5034325;28;20064;-57
2023/02/05 04:26:58;;;;;;;11.90;6.47;;;1.70;84.60;;;;;;5031809;28;20515;-59
2023/02/05 04:29:23;;;;;;;13.65;7.00;;;1.80;84.40;;;;;;5030846;28;20420;-61
2023/02/05 04:31:49;;;;;;;16.55;7.03;;;1.70;84.30;;;;;;5029861;28;20040;-58
2023/02/05 04:34:14;;;;;;;11.43;7.13;;;1.70;84.20;;;;;;5027609;28;20040;-59
2023/02/05 04:36:40;;;;;;;16.35;7.43;;;1.80;84.40;;;;;;5028068;28;20107;-58
2023/02/05 04:39:06;;;;;;;12.15;7.28;;;1.70;84.40;;;;;;5031621;28;20429;-58
2023/02/05 04:41:31;;;;;;;11.07;7.28;;;1.80;85.30;;;;;;5024352;28;20091;-58
2023/02/05 04:43:57;;;;;;;13.35;7.78;;;1.70;84.20;;;;;;5027325;28;20041;-59
2023/02/05 04:46:22;;;;;;;13.88;7.90;;;1.80;84.20;;;;;;5029977;28;20560;-60
2023/02/05 04:48:48;;;;;;;13.07;7.95;;;1.80;84.20;;;;;;5030625;28;20044;-60
2023/02/05 04:51:14;;;;;;;12.88;7.82;;;1.80;84.30;;;;;;5029273;28;20500;-58
2023/02/05 04:53:40;;;;;;;14.23;8.45;;;1.80;84.30;;;;;;5029728;28;20401;-59
2023/02/05 04:56:06;;;;;;;13.98;7.88;;;1.80;84.30;;;;;;5031780;28;20045;-58
2023/02/05 04:58:32;;;;;;;12.63;6.78;;;1.80;84.20;;;;;;5030984;28;20033;-59
2023/02/05 05:00:57;;;;;;;11.88;7.15;;;1.80;84.10;;;;;;5029636;28;20060;-59
2023/02/05 05:03:23;;;;;;;11.45;7.30;;;1.90;84.00;;;;;;5026830;28;20416;-59
2023/02/05 05:05:49;;;;;;;11.55;7.55;;;1.90;83.90;;;;;;5029126;28;20041;-59
2023/02/05 05:08:14;;;;;;;14.40;7.63;;;1.90;83.90;;;;;;5030507;28;20029;-60
2023/02/05 05:10:40;;;;;;;11.20;7.00;;;1.90;83.80;;;;;;5022548;28;20068;-57
2023/02/05 05:13:05;;;;;;;12.57;7.70;;;1.90;83.70;;;;;;5030128;28;20170;-60
2023/02/05 05:15:31;;;;;;;11.15;7.28;;;1.90;83.50;;;;;;5030182;28;20026;-58
2023/02/05 05:17:56;;;;;;;11.93;6.95;;;1.90;83.50;;;;;;5027680;28;20037;-58
2023/02/05 05:20:22;;;;;;;12.82;7.20;;;1.90;83.20;;;;;;5028703;28;20493;-58
2023/02/05 05:22:48;;;;;;;15.23;7.85;;;1.90;83.00;;;;;;5031251;28;20060;-59
2023/02/05 05:25:13;;;;;;;13.52;7.45;;;1.80;82.80;;;;;;5031615;28;20030;-59
2023/02/05 05:27:39;;;;;;;13.30;7.35;;;1.80;82.60;;;;;;5032590;28;20057;-57
2023/02/05 05:30:05;;;;;;;13.18;8.05;;;1.80;82.60;;;;;;5032846;28;20029;-59
2023/02/05 05:32:30;;;;;;;13.85;7.60;;;1.70;82.70;;;;;;5026501;28;20041;-58
2023/02/05 05:34:56;;;;;;;10.50;7.10;;;1.70;82.90;;;;;;5026777;28;20033;-58
2023/02/05 05:37:22;;;;;;;9.88;6.53;;;1.70;82.80;;;;;;5029302;28;20500;-57
2023/02/05 05:45:15;;;;;;;8.88;6.50;;;1.60;82.80;;;;;;5025612;28;20036;-60
2023/02/05 05:47:41;;;;;;;11.73;6.30;;;1.60;82.90;;;;;;5030243;28;20460;-61
2023/02/05 05:50:07;;;;;;;9.38;6.85;;;1.50;83.10;;;;;;5025834;28;20041;-60
2023/02/05 05:52:33;;;;;;;10.30;6.78;;;1.50;83.20;;;;;;5031188;28;20060;-60
2023/02/05 05:54:58;;;;;;;9.93;7.20;;;1.50;83.30;;;;;;5035065;28;20041;-60
2023/02/05 05:57:24;;;;;;;13.23;7.80;;;1.50;83.40;;;;;;5034989;28;20044;-59
2023/02/05 05:59:50;;;;;;;11.07;7.72;;;1.60;83.60;;;;;;5035305;28;20043;-58
2023/02/05 06:02:16;;;;;;;12.32;7.80;;;1.60;83.40;;;;;;5036103;28;20041;-56
2023/02/05 06:04:42;;;;;;;11.52;7.15;;;1.60;83.30;;;;;;5039713;28;20041;-60
2023/02/05 06:07:07;;;;;;;14.13;8.15;;;1.60;83.30;;;;;;5037595;28;20504;-59
2023/02/05 06:09:33;;;;;;;13.93;7.40;;;1.60;83.50;;;;;;5036042;28;20045;-60
2023/02/05 06:11:58;;;;;;;9.85;7.10;;;1.60;83.60;;;;;;5032635;28;20421;-60
2023/02/05 06:14:24;;;;;;;11.00;7.70;;;1.60;83.70;;;;;;5034860;28;20059;-60
2023/02/05 06:16:51;;;;;;;11.90;7.57;;;1.60;83.70;;;;;;5029788;28;20035;-60
2023/02/05 06:19:17;;;;;;;14.15;8.15;;;1.60;83.90;;;;;;5033470;28;20537;-60
2023/02/05 06:21:42;;;;;;;12.30;7.80;;;1.60;84.00;;;;;;5031864;28;20040;-59
2023/02/05 06:24:08;;;;;;;12.77;7.50;;;1.60;84.10;;;;;;5035980;28;20612;-60
2023/02/05 06:26:33;;;;;;;14.02;8.82;;;1.60;84.20;;;;;;5035157;28;20037;-60
2023/02/05 06:29:02;;;;;;;14.15;9.57;;;1.60;84.10;;;;;;5033217;28;20039;-59
2023/02/05 06:31:28;;;;;;;20.60;11.75;;;1.70;84.20;;;;;;5028604;28;20432;-58
2023/02/05 06:33:54;;;;;;;26.23;11.55;;;1.60;84.00;;;;;;5025223;28;20040;-58
2023/02/05 06:36:19;;;;;;;10.80;7.90;;;1.70;84.20;;;;;;5030628;28;20029;-60
2023/02/05 06:38:45;;;;;;;12.05;7.65;;;1.70;84.10;;;;;;5034945;28;20463;-58
2023/02/05 06:41:11;;;;;;;12.60;8.65;;;1.70;84.00;;;;;;5035561;28;20037;-59
2023/02/05 06:43:36;;;;;;;11.80;9.77;;;1.70;84.00;;;;;;5033706;28;20110;-58
2023/02/05 06:46:02;;;;;;;13.52;9.75;;;1.60;83.90;;;;;;5031686;28;20046;-60
2023/02/05 06:48:27;;;;;;;15.07;9.98;;;1.60;84.00;;;;;;5024400;28;20489;-59
2023/02/05 06:50:53;;;;;;;17.40;10.73;;;1.60;83.90;;;;;;5030861;28;20069;-59
2023/02/05 06:53:18;;;;;;;17.77;10.30;;;1.60;84.00;;;;;;5033420;28;20033;-56
2023/02/05 06:55:44;;;;;;;15.68;9.77;;;1.60;84.20;;;;;;5034969;28;20106;-58
2023/02/05 06:58:09;;;;;;;15.75;10.57;;;1.60;84.40;;;;;;5033722;28;20037;-57
2023/02/05 07:00:35;;;;;;;17.98;10.90;;;1.60;84.70;;;;;;5026897;28;20120;-58
2023/02/05 07:03:01;;;;;;;14.10;10.60;;;1.60;84.80;;;;;;5037315;28;20037;-57
2023/02/05 07:05:27;;;;;;;13.50;10.02;;;1.60;84.90;;;;;;5037710;28;20131;-59
2023/02/05 07:07:52;;;;;;;12.82;9.63;;;1.70;84.90;;;;;;5037713;28;20063;-58
2023/02/05 07:10:18;;;;;;;14.95;10.35;;;1.70;84.90;;;;;;5034686;28;20033;-58
2023/02/05 07:12:44;;;;;;;14.82;10.35;;;1.70;84.90;;;;;;5031302;28;20086;-59
2023/02/05 07:15:10;;;;;;;15.35;9.63;;;1.70;85.10;;;;;;5038180;28;20029;-57
2023/02/05 07:17:36;;;;;;;13.88;9.57;;;1.80;85.20;;;;;;5034473;28;20121;-60
2023/02/05 07:20:01;;;;;;;13.95;9.68;;;1.80;85.10;;;;;;5037805;28;20064;-59
2023/02/05 07:22:27;;;;;;;13.32;8.75;;;1.80;85.00;;;;;;5036399;28;20065;-58
2023/02/05 07:24:53;;;;;;;14.57;10.20;;;1.80;85.00;;;;;;5034177;28;20112;-59
2023/02/05 07:27:18;;;;;;;15.73;11.10;;;1.80;85.00;;;;;;5027586;28;20037;-61
2023/02/05 07:29:44;;;;;;;19.65;14.13;;;1.80;84.90;;;;;;5015381;28;20045;-58
2023/02/05 07:32:09;;;;;;;18.98;13.88;;;1.90;85.10;;;;;;5025590;28;20583;-57
2023/02/05 07:34:35;;;;;;;16.90;12.20;;;1.90;85.20;;;;;;5030112;28;20578;-59
2023/02/05 07:37:00;;;;;;;25.45;16.17;;;1.90;85.30;;;;;;5028845;28;20044;-60
2023/02/05 07:39:27;;;;;;;21.50;13.48;;;1.90;85.40;;;;;;5022788;28;20134;-59
2023/02/05 07:41:53;;;;;;;15.75;10.82;;;2.00;85.50;;;;;;5020013;28;20502;-59
2023/02/05 07:44:19;;;;;;;14.00;9.65;;;2.00;85.60;;;;;;5023761;28;20047;-60
2023/02/05 07:46:45;;;;;;;23.00;15.93;;;2.00;85.70;;;;;;5030225;28;20045;-60
2023/02/05 07:49:10;;;;;;;16.70;11.93;;;2.10;85.80;;;;;;5021936;28;20037;-58
2023/02/05 07:51:36;;;;;;;22.08;15.38;;;2.10;86.00;;;;;;5024732;28;20037;-58
2023/02/05 07:54:06;;;;;;;22.52;15.50;;;2.10;86.10;;;;;;5025679;28;20532;-59
2023/02/05 07:56:31;;;;;;;31.20;18.50;;;2.20;86.20;;;;;;5024938;28;20055;-59
2023/02/05 07:58:57;;;;;;;32.88;18.73;;;2.20;86.30;;;;;;5031036;28;20527;-59
2023/02/05 08:01:23;;;;;;;37.25;21.92;;;2.20;86.30;;;;;;5021566;28;20528;-59
2023/02/05 08:03:48;;;;;;;28.83;18.25;;;2.30;86.40;;;;;;5024648;28;20087;-58
2023/02/05 08:06:15;;;;;;;25.00;15.80;;;2.30;86.50;;;;;;5026698;28;20116;-58
2023/02/05 08:08:41;;;;;;;25.90;16.20;;;2.40;86.80;;;;;;5028797;28;20045;-58
2023/02/05 08:11:06;;;;;;;27.60;16.65;;;2.50;86.60;;;;;;5018301;28;20750;-59
2023/02/05 08:13:33;;;;;;;21.83;12.13;;;2.50;86.50;;;;;;5026299;28;20112;-58
2023/02/05 08:16:03;;;;;;;16.20;10.85;;;2.60;86.60;;;;;;5019878;28;20453;-61
2023/02/05 08:18:28;;;;;;;16.50;10.52;;;2.60;86.50;;;;;;5027516;28;20064;-59
2023/02/05 08:20:54;;;;;;;13.23;9.07;;;2.70;86.50;;;;;;5025342;28;20041;-56
2023/02/05 08:23:20;;;;;;;13.48;9.18;;;2.70;86.50;;;;;;5030597;28;20492;-60
2023/02/05 08:25:46;;;;;;;15.18;10.65;;;2.80;86.50;;;;;;5026760;28;20060;-57
2023/02/05 08:28:12;;;;;;;15.93;9.75;;;2.80;86.50;;;;;;5023580;28;20589;-59
2023/02/05 08:30:38;;;;;;;15.95;11.35;;;2.80;86.50;;;;;;5022996;28;20047;-59
2023/02/05 08:33:04;;;;;;;18.63;11.25;;;2.80;86.50;;;;;;5028977;28;20030;-57
2023/02/05 08:35:30;;;;;;;16.63;11.30;;;2.90;86.60;;;;;;5026188;28;20521;-59
2023/02/05 08:37:56;;;;;;;20.40;11.43;;;2.90;86.80;;;;;;5023480;28;20039;-54
2023/02/05 08:40:22;;;;;;;15.00;10.02;;;2.90;87.00;;;;;;5030218;28;20045;-60
2023/02/05 08:42:51;;;;;;;17.48;9.93;;;2.90;87.00;;;;;;5028331;28;20118;-59
2023/02/05 08:45:17;;;;;;;14.70;9.98;;;3.00;87.10;;;;;;5026541;28;20077;-57
2023/02/05 08:47:43;;;;;;;16.73;10.10;;;3.00;87.00;;;;;;5023764;28;20033;-58
2023/02/05 08:50:09;;;;;;;24.17;12.70;;;3.00;87.00;;;;;;5026656;28;20520;-58
2023/02/05 08:52:35;;;;;;;19.75;11.20;;;3.10;87.20;;;;;;5026950;28;20057;-58
2023/02/05 08:55:00;;;;;;;25.45;14.18;;;3.10;87.20;;;;;;5021038;28;20041;-55
2023/02/05 08:57:29;;;;;;;38.47;20.50;;;3.10;87.20;;;;;;5028126;28;20063;-55
2023/02/05 08:59:55;;;;;;;23.73;14.45;;;3.20;87.30;;;;;;5019920;28;20072;-58
2023/02/05 09:02:21;;;;;;;28.17;15.55;;;3.20;87.20;;;;;;5024350;28;20376;-59
2023/02/05 09:04:47;;;;;;;18.35;11.35;;;3.30;87.90;;;;;;5027093;28;20033;-57
2023/02/05 09:07:13;;;;;;;21.52;13.02;;;3.30;87.00;;;;;;5022017;28;20048;-58
2023/02/05 09:09:39;;;;;;;15.73;9.63;;;3.30;87.00;;;;;;5027551;28;20048;-58
2023/02/05 09:12:05;;;;;;;13.30;7.78;;;3.40;87.10;;;;;;5020398;28;20404;-59
2023/02/05 09:14:35;;;;;;;18.35;9.65;;;3.40;87.00;;;;;;5024122;28;20061;-58
2023/02/05 09:17:02;;;;;;;15.43;8.30;;;3.50;87.00;;;;;;5023849;28;20048;-56
2023/02/05 09:19:30;;;;;;;19.02;9.50;;;3.50;87.10;;;;;;5029620;28;20072;-56
2023/02/05 09:21:56;;;;;;;13.70;8.18;;;3.50;87.00;;;;;;5020714;28;20037;-57
2023/02/05 09:24:21;;;;;;;15.60;10.10;;;3.60;87.10;;;;;;5023708;28;20997;-57
2023/02/05 09:26:47;;;;;;;17.35;10.70;;;3.60;87.10;;;;;;5021873;28;20535;-59
2023/02/05 09:29:13;;;;;;;14.70;8.85;;;3.70;87.20;;;;;;5021240;28;20061;-57
2023/02/05 09:31:39;;;;;;;12.73;8.40;;;3.70;87.10;;;;;;5025062;28;20607;-61
2023/02/05 09:34:05;;;;;;;15.93;8.43;;;3.80;87.20;;;;;;5032167;28;20029;-59
2023/02/05 09:36:31;;;;;;;16.27;8.85;;;3.80;87.10;;;;;;5030072;28;20038;-58
2023/02/05 09:38:56;;;;;;;17.35;10.05;;;3.90;87.00;;;;;;5022651;28;20612;-60
2023/02/05 09:41:31;;;;;;;14.38;8.55;;;3.90;86.90;;;;;;5027749;28;20556;-60
2023/02/05 09:44:02;;;;;;;12.55;7.55;;;4.00;87.00;;;;;;5030735;28;20457;-60
2023/02/05 09:46:44;;;;;;;11.98;7.72;;;4.10;86.90;;;;;;5024542;28;20033;-60
2023/02/05 09:49:28;;;;;;;14.60;7.20;;;4.10;86.80;;;;;;5031630;28;20038;-61
2023/02/05 09:52:01;;;;;;;12.88;7.05;;;4.20;86.60;;;;;;5027810;28;20654;-58
2023/02/05 09:54:39;;;;;;;14.23;8.05;;;4.30;86.50;;;;;;5026401;28;20041;-57
2023/02/05 09:57:14;;;;;;;11.68;6.72;;;4.30;86.20;;;;;;5025745;28;20040;-59
2023/02/05 09:59:44;;;;;;;14.13;6.30;;;4.30;85.80;;;;;;5023989;28;20087;-59
2023/02/05 10:02:43;;;;;;;12.30;6.72;;;4.40;85.40;;;;;;5025221;28;20033;-59
2023/02/05 10:05:13;;;;;;;10.77;6.05;;;4.40;85.10;;;;;;5024345;28;20791;-59
2023/02/05 10:07:48;;;;;;;11.05;6.55;;;4.40;85.10;;;;;;5026466;28;20165;-58
2023/02/05 10:10:22;;;;;;;14.07;6.68;;;4.40;85.10;;;;;;5036425;28;20024;-56
2023/02/05 10:13:26;;;;;;;11.73;6.20;;;4.40;85.10;;;;;;5030905;28;20103;-58
2023/02/05 10:16:03;;;;;;;10.88;6.10;;;4.40;85.10;;;;;;5025680;28;20475;-59
2023/02/05 10:18:43;;;;;;;11.13;6.57;;;4.40;85.10;;;;;;5029369;28;20037;-59
2023/02/05 10:21:28;;;;;;;18.67;9.02;;;4.40;84.90;;;;;;5034579;28;20548;-59
2023/02/05 10:24:02;;;;;;;17.17;7.68;;;4.40;85.10;;;;;;5028436;28;20422;-58
2023/02/05 10:26:42;;;;;;;17.05;7.97;;;4.40;85.10;;;;;;5030082;28;20040;-56
2023/02/05 10:29:20;;;;;;;13.48;8.05;;;4.40;85.10;;;;;;5031093;28;20057;-60
2023/02/05 10:32:16;;;;;;;13.40;6.43;;;4.50;85.40;;;;;;5022227;28;20449;-60
2023/02/05 10:34:52;;;;;;;14.48;8.15;;;4.50;85.30;;;;;;5023251;28;20030;-58
2023/02/05 10:37:20;;;;;;;16.17;8.20;;;4.60;85.30;;;;;;5025575;28;20200;-60
2023/02/05 10:39:47;;;;;;;17.50;7.50;;;4.60;85.20;;;;;;5023987;28;20042;-58
2023/02/05 10:42:32;;;;;;;14.70;7.30;;;4.70;85.30;;;;;;5031077;28;20404;-59
2023/02/05 10:45:25;;;;;;;16.88;8.90;;;4.70;84.90;;;;;;5024641;28;20456;-58
2023/02/05 10:48:09;;;;;;;18.95;10.75;;;4.80;84.40;;;;;;5027090;28;20041;-59
2023/02/05 10:51:00;;;;;;;17.23;7.97;;;4.80;84.40;;;;;;5033282;28;20045;-59
2023/02/05 10:53:28;;;;;;;15.48;8.13;;;4.90;84.40;;;;;;5015844;28;20496;-58
2023/02/05 10:55:54;;;;;;;12.45;6.75;;;4.90;84.30;;;;;;5036295;28;20045;-58
2023/02/05 10:58:38;;;;;;;14.63;9.15;;;4.90;84.20;;;;;;5038534;28;20022;-60
2023/02/05 11:01:06;;;;;;;17.58;8.10;;;5.00;84.20;;;;;;5037416;28;20033;-58
2023/02/05 11:03:32;;;;;;;14.93;7.05;;;5.00;84.20;;;;;;5038043;28;20523;-60
2023/02/05 11:05:58;;;;;;;13.13;6.53;;;5.10;84.30;;;;;;5037995;28;20044;-61
2023/02/05 11:08:34;;;;;;;9.63;5.75;;;5.10;84.20;;;;;;5038021;28;20041;-61
2023/02/05 11:11:00;;;;;;;12.73;5.85;;;5.10;84.00;;;;;;5034095;28;20057;-58
2023/02/05 11:13:27;;;;;;;12.07;5.85;;;5.20;84.00;;;;;;5037582;28;20398;-58
2023/02/05 11:16:02;;;;;;;10.90;5.53;;;5.20;84.00;;;;;;5037131;28;20038;-58
2023/02/05 11:18:34;;;;;;;10.77;6.07;;;5.20;83.90;;;;;;5037601;28;20091;-59
2023/02/05 11:21:02;;;;;;;13.05;5.97;;;5.30;83.90;;;;;;5037637;28;20025;-58
2023/02/05 11:23:38;;;;;;;13.45;6.47;;;5.30;83.80;;;;;;5036635;28;20034;-56
2023/02/05 11:26:19;;;;;;;12.05;5.43;;;5.40;83.80;;;;;;5032470;28;20037;-59
2023/02/05 11:28:45;;;;;;;15.13;6.85;;;5.40;83.60;;;;;;5037346;28;20029;-60
2023/02/05 11:31:33;;;;;;;15.88;8.00;;;5.40;83.60;;;;;;5037902;28;20471;-59
2023/02/05 11:34:08;;;;;;;12.85;6.82;;;5.50;83.50;;;;;;5020572;28;20026;-58
2023/02/05 11:36:36;;;;;;;14.05;7.50;;;5.50;83.50;;;;;;5037933;28;20452;-59
2023/02/05 11:39:03;;;;;;;11.38;6.32;;;5.60;83.60;;;;;;5037444;28;20033;-59
2023/02/05 11:41:46;;;;;;;10.98;5.65;;;5.60;83.70;;;;;;5031329;28;20064;-58
2023/02/05 11:44:26;;;;;;;12.23;6.05;;;5.60;83.50;;;;;;5033166;28;20041;-58
2023/02/05 11:46:55;;;;;;;16.67;7.07;;;5.60;83.50;;;;;;5032067;28;20557;-59
2023/02/05 11:49:28;;;;;;;12.18;6.72;;;5.70;83.60;;;;;;5035924;28;20140;-58
2023/02/05 11:51:55;;;;;;;15.45;8.50;;;5.70;83.70;;;;;;5037236;28;20072;-60
2023/02/05 11:54:31;;;;;;;15.23;7.38;;;5.70;83.60;;;;;;5036974;28;20033;-61
2023/02/05 11:57:25;;;;;;;16.00;7.57;;;5.70;83.50;;;;;;5033090;28;20382;-60
2023/02/05 11:59:54;;;;;;;16.50;9.33;;;5.70;83.50;;;;;;5025790;28;20033;-59
2023/02/05 12:02:28;;;;;;;25.15;12.88;;;5.70;83.30;;;;;;5026124;28;20167;-60
2023/02/05 12:05:01;;;;;;;15.15;7.63;;;5.70;83.40;;;;;;5023730;28;20066;-60
2023/02/05 12:07:33;;;;;;;12.80;7.22;;;5.70;83.50;;;;;;5022578;28;20029;-61
2023/02/05 12:09:59;;;;;;;17.17;6.45;;;5.70;83.60;;;;;;5031659;28;20037;-58
2023/02/05 12:13:11;;;;;;;17.30;6.05;;;5.70;83.70;;;;;;5031065;28;20045;-59
2023/02/05 12:16:12;;;;;;;15.57;6.43;;;5.70;84.00;;;;;;5008245;28;20109;-61
2023/02/05 12:18:47;;;;;;;19.00;6.72;;;5.70;83.90;;;;;;4998923;28;20372;-60
2023/02/05 12:21:36;;;;;;;12.02;4.75;;;5.60;83.50;;;;;;5029219;28;20634;-57
2023/02/05 12:24:10;;;;;;;13.48;4.72;;;5.60;83.20;;;;;;5031821;28;20056;-59
2023/02/05 12:26:39;;;;;;;14.95;4.97;;;5.60;83.20;;;;;;5032602;28;20044;-60
2023/02/05 12:29:27;;;;;;;12.90;4.95;;;5.50;83.20;;;;;;5029880;28;20033;-60
2023/02/05 12:32:17;;;;;;;12.35;4.65;;;5.50;83.20;;;;;;5029700;28;20048;-59
2023/02/05 12:35:11;;;;;;;12.30;5.20;;;5.40;83.20;;;;;;5031144;28;20063;-59
2023/02/05 12:38:00;;;;;;;15.20;5.30;;;5.40;83.30;;;;;;5030043;28;20025;-59
2023/02/05 12:40:34;;;;;;;11.30;5.40;;;5.30;83.50;;;;;;5031206;28;20128;-61
2023/02/05 12:43:21;;;;;;;13.23;5.65;;;5.30;83.50;;;;;;5033493;28;20026;-60
2023/02/05 12:45:52;;;;;;;14.60;5.70;;;5.20;83.70;;;;;;5026698;28;20575;-59
2023/02/05 12:49:16;;;;;;;14.90;5.72;;;5.20;83.70;;;;;;5029294;28;20033;-59
2023/02/05 12:52:03;;;;;;;13.40;5.07;;;5.10;85.20;;;;;;5007294;28;20041;-59
2023/02/05 12:55:05;;;;;;;13.15;5.40;;;5.10;84.40;;;;;;5010197;28;20042;-57
2023/02/05 12:57:48;;;;;;;13.88;5.65;;;5.00;84.70;;;;;;5027233;28;20057;-58
2023/02/05 13:00:22;;;;;;;13.02;4.93;;;5.00;84.90;;;;;;5030572;28;20044;-59
2023/02/05 13:03:12;;;;;;;13.17;4.73;;;5.00;84.90;;;;;;5029127;28;20045;-57
2023/02/05 13:05:59;;;;;;;13.98;6.22;;;5.00;84.90;;;;;;5032802;28;20073;-60
2023/02/05 13:08:37;;;;;;;12.45;5.07;;;4.90;85.00;;;;;;5030921;28;20120;-60